sensor_id;sensor_type;location;lat;lon;timestamp;temperature;humidity
22426;DHT22;11380;50.822;15.790;2023-02-22T00:00:54;5.80;99.90
22426;DHT22;11380;50.822;15.790;2023-02-22T00:06:04;5.60;99.90
22426;DHT22;11380;50.822;15.790;2023-02-22T00:11:11;5.60;99.90
22426;DHT22;11380;50.822;15.790;2023-02-22T00:16:21;5.60;99.90
22426;DHT22;11380;50.822;15.790;2023-02-22T00:21:30;5.70;99.90
22426;DHT22;11380;50.822;15.790;2023-02-22T00:26:37;5.70;99.90
22426;DHT22;11380;50.822;15.790;2023-02-22T00:31:45;5.70;99.90
22426;DHT22;11380;50.822;15.790;2023-02-22T00:36:53;5.80;99.90
22426;DHT22;11380;50.822;15.790;2023-02-22T00:42:00;5.70;99.90
22426;DHT22;11380;50.822;15.790;2023-02-22T00:47:08;5.60;99.90
22426;DHT22;11380;50.822;15.790;2023-02-22T00:52:17;5.60;99.90
22426;DHT22;11380;50.822;15.790;2023-02-22T00:57:26;5.70;99.90
22426;DHT22;11380;50.822;15.790;2023-02-22T01:02:33;5.80;99.90
22426;DHT22;11380;50.822;15.790;2023-02-22T01:07:40;5.90;99.90
22426;DHT22;11380;50.822;15.790;2023-02-22T01:12:49;5.90;99.90
22426;DHT22;11380;50.822;15.790;2023-02-22T01:17:57;5.90;99.90
22426;DHT22;11380;50.822;15.790;2023-02-22T01:23:05;6.00;99.90
22426;DHT22;11380;50.822;15.790;2023-02-22T01:28:13;6.10;99.90
22426;DHT22;11380;50.822;15.790;2023-02-22T01:33:21;6.10;99.90
22426;DHT22;11380;50.822;15.790;2023-02-22T01:38:28;5.90;99.90
22426;DHT22;11380;50.822;15.790;2023-02-22T01:43:36;6.10;99.90
22426;DHT22;11380;50.822;15.790;2023-02-22T01:48:47;6.10;99.90
22426;DHT22;11380;50.822;15.790;2023-02-22T01:54:09;6.20;99.90
22426;DHT22;11380;50.822;15.790;2023-02-22T01:59:22;6.20;99.90
22426;DHT22;11380;50.822;15.790;2023-02-22T02:04:30;6.10;99.90
22426;DHT22;11380;50.822;15.790;2023-02-22T02:15:15;6.00;99.90
22426;DHT22;11380;50.822;15.790;2023-02-22T02:20:37;6.10;99.90
22426;DHT22;11380;50.822;15.790;2023-02-22T02:37:35;6.00;99.90
22426;DHT22;11380;50.822;15.790;2023-02-22T02:43:03;6.00;99.90
22426;DHT22;11380;50.822;15.790;2023-02-22T02:48:31;6.00;99.90
22426;DHT22;11380;50.822;15.790;2023-02-22T02:53:42;5.90;99.90
22426;DHT22;11380;50.822;15.790;2023-02-22T02:58:51;6.00;99.90
22426;DHT22;11380;50.822;15.790;2023-02-22T03:09:50;5.60;99.90
22426;DHT22;11380;50.822;15.790;2023-02-22T03:26:28;5.10;99.90
22426;DHT22;11380;50.822;15.790;2023-02-22T03:31:47;5.30;99.90
22426;DHT22;11380;50.822;15.790;2023-02-22T03:37:02;5.40;99.90
22426;DHT22;11380;50.822;15.790;2023-02-22T03:42:32;5.60;99.90
22426;DHT22;11380;50.822;15.790;2023-02-22T03:47:48;5.80;99.90
22426;DHT22;11380;50.822;15.790;2023-02-22T03:52:51;5.50;99.90
22426;DHT22;11380;50.822;15.790;2023-02-22T03:58:04;5.80;99.90
22426;DHT22;11380;50.822;15.790;2023-02-22T04:03:14;5.80;99.90
22426;DHT22;11380;50.822;15.790;2023-02-22T04:08:21;5.70;99.90
22426;DHT22;11380;50.822;15.790;2023-02-22T04:13:29;5.70;99.90
22426;DHT22;11380;50.822;15.790;2023-02-22T04:18:37;5.70;99.90
22426;DHT22;11380;50.822;15.790;2023-02-22T04:23:44;5.60;99.90
22426;DHT22;11380;50.822;15.790;2023-02-22T04:28:51;5.70;99.90
22426;DHT22;11380;50.822;15.790;2023-02-22T04:33:58;5.70;99.90
22426;DHT22;11380;50.822;15.790;2023-02-22T04:39:05;5.60;99.90
22426;DHT22;11380;50.822;15.790;2023-02-22T04:44:12;5.70;99.90
22426;DHT22;11380;50.822;15.790;2023-02-22T04:49:19;5.60;99.90
22426;DHT22;11380;50.822;15.790;2023-02-22T04:54:26;5.60;99.90
22426;DHT22;11380;50.822;15.790;2023-02-22T04:59:33;5.70;99.90
22426;DHT22;11380;50.822;15.790;2023-02-22T05:04:40;5.50;99.90
22426;DHT22;11380;50.822;15.790;2023-02-22T05:09:48;5.70;99.90
22426;DHT22;11380;50.822;15.790;2023-02-22T05:14:54;5.80;99.90
22426;DHT22;11380;50.822;15.790;2023-02-22T05:20:04;5.80;99.90
22426;DHT22;11380;50.822;15.790;2023-02-22T05:25:12;5.70;99.90
22426;DHT22;11380;50.822;15.790;2023-02-22T05:30:23;5.70;99.90
22426;DHT22;11380;50.822;15.790;2023-02-22T05:35:35;5.60;99.90
22426;DHT22;11380;50.822;15.790;2023-02-22T05:40:42;5.60;99.90
22426;DHT22;11380;50.822;15.790;2023-02-22T05:45:50;5.50;99.90
22426;DHT22;11380;50.822;15.790;2023-02-22T05:50:57;5.70;99.90
22426;DHT22;11380;50.822;15.790;2023-02-22T05:56:04;5.90;99.90
22426;DHT22;11380;50.822;15.790;2023-02-22T06:01:13;5.80;99.90
22426;DHT22;11380;50.822;15.790;2023-02-22T06:06:20;5.70;99.90
22426;DHT22;11380;50.822;15.790;2023-02-22T06:11:27;5.20;99.90
22426;DHT22;11380;50.822;15.790;2023-02-22T06:16:35;5.40;99.90
22426;DHT22;11380;50.822;15.790;2023-02-22T06:21:50;5.50;99.90
22426;DHT22;11380;50.822;15.790;2023-02-22T06:27:00;5.50;99.90
22426;DHT22;11380;50.822;15.790;2023-02-22T06:32:07;5.50;99.90
22426;DHT22;11380;50.822;15.790;2023-02-22T06:37:15;5.50;99.90
22426;DHT22;11380;50.822;15.790;2023-02-22T06:42:22;5.60;99.90
22426;DHT22;11380;50.822;15.790;2023-02-22T06:47:30;5.70;99.90
22426;DHT22;11380;50.822;15.790;2023-02-22T06:52:42;5.80;99.90
22426;DHT22;11380;50.822;15.790;2023-02-22T06:57:49;5.90;99.90
22426;DHT22;11380;50.822;15.790;2023-02-22T07:02:57;5.60;99.90
22426;DHT22;11380;50.822;15.790;2023-02-22T07:08:06;5.60;99.90
22426;DHT22;11380;50.822;15.790;2023-02-22T07:13:15;5.70;99.90
22426;DHT22;11380;50.822;15.790;2023-02-22T07:18:22;5.80;99.90
22426;DHT22;11380;50.822;15.790;2023-02-22T07:23:29;5.80;99.90
22426;DHT22;11380;50.822;15.790;2023-02-22T07:28:36;6.00;99.90
22426;DHT22;11380;50.822;15.790;2023-02-22T07:33:46;6.00;99.90
22426;DHT22;11380;50.822;15.790;2023-02-22T07:38:54;6.00;99.90
22426;DHT22;11380;50.822;15.790;2023-02-22T07:44:00;6.20;99.90
22426;DHT22;11380;50.822;15.790;2023-02-22T07:49:08;6.30;99.90
22426;DHT22;11380;50.822;15.790;2023-02-22T07:54:15;6.40;99.90
22426;DHT22;11380;50.822;15.790;2023-02-22T07:59:21;6.20;99.90
22426;DHT22;11380;50.822;15.790;2023-02-22T08:04:28;6.50;99.90
22426;DHT22;11380;50.822;15.790;2023-02-22T08:09:34;6.50;99.90
22426;DHT22;11380;50.822;15.790;2023-02-22T08:14:41;6.60;99.90
22426;DHT22;11380;50.822;15.790;2023-02-22T08:19:48;6.90;99.90
22426;DHT22;11380;50.822;15.790;2023-02-22T08:24:54;7.40;99.90
22426;DHT22;11380;50.822;15.790;2023-02-22T08:30:01;7.00;99.90
22426;DHT22;11380;50.822;15.790;2023-02-22T08:35:09;7.50;99.90
22426;DHT22;11380;50.822;15.790;2023-02-22T08:40:20;7.70;99.90
22426;DHT22;11380;50.822;15.790;2023-02-22T08:45:29;7.80;99.90
22426;DHT22;11380;50.822;15.790;2023-02-22T08:50:36;7.80;99.90
22426;DHT22;11380;50.822;15.790;2023-02-22T08:55:44;7.90;99.90
22426;DHT22;11380;50.822;15.790;2023-02-22T09:00:51;7.90;99.90
22426;DHT22;11380;50.822;15.790;2023-02-22T09:05:59;8.10;99.90
22426;DHT22;11380;50.822;15.790;2023-02-22T09:11:07;8.20;99.90
22426;DHT22;11380;50.822;15.790;2023-02-22T09:16:15;8.20;99.90
22426;DHT22;11380;50.822;15.790;2023-02-22T09:21:23;8.30;99.90
22426;DHT22;11380;50.822;15.790;2023-02-22T09:26:29;8.40;99.90
22426;DHT22;11380;50.822;15.790;2023-02-22T09:31:40;8.40;99.90
22426;DHT22;11380;50.822;15.790;2023-02-22T09:36:48;8.40;99.90
22426;DHT22;11380;50.822;15.790;2023-02-22T09:42:15;8.50;99.90
22426;DHT22;11380;50.822;15.790;2023-02-22T09:47:46;8.60;99.90
22426;DHT22;11380;50.822;15.790;2023-02-22T09:58:51;8.70;65.90
22426;DHT22;11380;50.822;15.790;2023-02-22T10:04:34;8.90;66.30
22426;DHT22;11380;50.822;15.790;2023-02-22T10:09:43;9.00;79.40
22426;DHT22;11380;50.822;15.790;2023-02-22T10:15:23;8.60;1.00
22426;DHT22;11380;50.822;15.790;2023-02-22T10:20:53;8.80;1.00
22426;DHT22;11380;50.822;15.790;2023-02-22T10:26:28;9.10;1.00
22426;DHT22;11380;50.822;15.790;2023-02-22T10:31:45;9.00;1.00
22426;DHT22;11380;50.822;15.790;2023-02-22T10:37:10;8.90;1.00
22426;DHT22;11380;50.822;15.790;2023-02-22T10:42:29;9.30;1.00
22426;DHT22;11380;50.822;15.790;2023-02-22T10:47:36;9.20;1.00
22426;DHT22;11380;50.822;15.790;2023-02-22T10:52:43;9.60;1.00
22426;DHT22;11380;50.822;15.790;2023-02-22T10:57:58;9.40;52.30
22426;DHT22;11380;50.822;15.790;2023-02-22T11:08:30;10.10;94.10
22426;DHT22;11380;50.822;15.790;2023-02-22T11:13:38;9.80;99.90
22426;DHT22;11380;50.822;15.790;2023-02-22T11:18:52;10.10;99.90
22426;DHT22;11380;50.822;15.790;2023-02-22T11:24:05;9.40;99.90
22426;DHT22;11380;50.822;15.790;2023-02-22T11:29:18;9.80;99.90
22426;DHT22;11380;50.822;15.790;2023-02-22T11:34:36;9.40;99.90
22426;DHT22;11380;50.822;15.790;2023-02-22T11:39:44;9.50;99.90
22426;DHT22;11380;50.822;15.790;2023-02-22T11:45:10;9.40;99.90
22426;DHT22;11380;50.822;15.790;2023-02-22T12:07:06;9.90;99.90
22426;DHT22;11380;50.822;15.790;2023-02-22T12:12:42;10.00;99.90
22426;DHT22;11380;50.822;15.790;2023-02-22T12:18:06;9.60;99.90
22426;DHT22;11380;50.822;15.790;2023-02-22T12:28:55;10.50;99.90
22426;DHT22;11380;50.822;15.790;2023-02-22T12:45:01;11.10;99.90
22426;DHT22;11380;50.822;15.790;2023-02-22T12:55:46;10.30;99.90
22426;DHT22;11380;50.822;15.790;2023-02-22T13:01:10;10.50;99.90
22426;DHT22;11380;50.822;15.790;2023-02-22T13:06:48;10.50;99.90
22426;DHT22;11380;50.822;15.790;2023-02-22T13:34:18;10.10;99.90
22426;DHT22;11380;50.822;15.790;2023-02-22T13:39:49;10.40;99.90
22426;DHT22;11380;50.822;15.790;2023-02-22T13:56:02;10.30;99.90
22426;DHT22;11380;50.822;15.790;2023-02-22T14:01:16;10.60;99.90
22426;DHT22;11380;50.822;15.790;2023-02-22T14:06:38;10.60;99.90
22426;DHT22;11380;50.822;15.790;2023-02-22T14:11:48;10.60;99.90
22426;DHT22;11380;50.822;15.790;2023-02-22T14:17:20;10.60;99.90
22426;DHT22;11380;50.822;15.790;2023-02-22T14:22:29;10.60;99.90
22426;DHT22;11380;50.822;15.790;2023-02-22T14:27:40;10.40;99.90
22426;DHT22;11380;50.822;15.790;2023-02-22T14:32:48;10.50;99.90
22426;DHT22;11380;50.822;15.790;2023-02-22T14:37:59;9.90;99.90
22426;DHT22;11380;50.822;15.790;2023-02-22T14:43:23;9.50;99.90
22426;DHT22;11380;50.822;15.790;2023-02-22T14:48:36;9.20;99.90
22426;DHT22;11380;50.822;15.790;2023-02-22T14:53:50;9.00;99.90
22426;DHT22;11380;50.822;15.790;2023-02-22T14:59:19;8.70;99.90
22426;DHT22;11380;50.822;15.790;2023-02-22T15:04:30;8.70;99.90
22426;DHT22;11380;50.822;15.790;2023-02-22T15:09:37;8.70;99.90
22426;DHT22;11380;50.822;15.790;2023-02-22T15:14:45;8.70;99.90
22426;DHT22;11380;50.822;15.790;2023-02-22T15:19:53;8.50;99.90
22426;DHT22;11380;50.822;15.790;2023-02-22T15:25:04;8.30;99.90
22426;DHT22;11380;50.822;15.790;2023-02-22T15:30:22;8.20;99.90
22426;DHT22;11380;50.822;15.790;2023-02-22T15:35:32;8.10;99.90
22426;DHT22;11380;50.822;15.790;2023-02-22T15:40:39;7.90;99.90
22426;DHT22;11380;50.822;15.790;2023-02-22T15:45:47;7.90;99.90
22426;DHT22;11380;50.822;15.790;2023-02-22T15:51:08;7.80;99.90
22426;DHT22;11380;50.822;15.790;2023-02-22T15:56:26;7.70;99.90
22426;DHT22;11380;50.822;15.790;2023-02-22T16:01:38;7.80;99.90
22426;DHT22;11380;50.822;15.790;2023-02-22T16:06:47;7.80;99.90
22426;DHT22;11380;50.822;15.790;2023-02-22T16:12:07;7.60;99.90
22426;DHT22;11380;50.822;15.790;2023-02-22T16:17:36;7.50;99.90
22426;DHT22;11380;50.822;15.790;2023-02-22T16:22:48;7.40;99.90
22426;DHT22;11380;50.822;15.790;2023-02-22T16:28:01;7.40;99.90
22426;DHT22;11380;50.822;15.790;2023-02-22T16:33:13;7.30;99.90
22426;DHT22;11380;50.822;15.790;2023-02-22T16:38:20;7.20;99.90
22426;DHT22;11380;50.822;15.790;2023-02-22T16:43:30;7.20;99.90
22426;DHT22;11380;50.822;15.790;2023-02-22T16:48:40;7.30;99.90
22426;DHT22;11380;50.822;15.790;2023-02-22T16:53:59;7.40;99.90
22426;DHT22;11380;50.822;15.790;2023-02-22T16:59:13;7.40;99.90
22426;DHT22;11380;50.822;15.790;2023-02-22T17:04:22;7.40;99.90
22426;DHT22;11380;50.822;15.790;2023-02-22T17:09:30;7.40;99.90
22426;DHT22;11380;50.822;15.790;2023-02-22T17:14:38;7.50;99.90
22426;DHT22;11380;50.822;15.790;2023-02-22T17:19:45;7.30;99.90
22426;DHT22;11380;50.822;15.790;2023-02-22T17:24:52;7.40;99.90
22426;DHT22;11380;50.822;15.790;2023-02-22T17:30:00;7.40;99.90
22426;DHT22;11380;50.822;15.790;2023-02-22T17:35:09;7.30;99.90
22426;DHT22;11380;50.822;15.790;2023-02-22T17:40:16;7.30;99.90
22426;DHT22;11380;50.822;15.790;2023-02-22T17:45:24;7.20;99.90
22426;DHT22;11380;50.822;15.790;2023-02-22T17:50:31;7.20;99.90
22426;DHT22;11380;50.822;15.790;2023-02-22T17:55:41;6.80;99.90
22426;DHT22;11380;50.822;15.790;2023-02-22T18:00:49;6.70;99.90
22426;DHT22;11380;50.822;15.790;2023-02-22T18:06:00;6.60;99.90
22426;DHT22;11380;50.822;15.790;2023-02-22T18:11:06;6.30;99.90
22426;DHT22;11380;50.822;15.790;2023-02-22T18:16:13;6.20;99.90
22426;DHT22;11380;50.822;15.790;2023-02-22T18:21:23;6.00;99.90
22426;DHT22;11380;50.822;15.790;2023-02-22T18:26:30;6.20;99.90
22426;DHT22;11380;50.822;15.790;2023-02-22T18:31:38;6.00;99.90
22426;DHT22;11380;50.822;15.790;2023-02-22T18:36:46;5.80;99.90
22426;DHT22;11380;50.822;15.790;2023-02-22T18:41:54;5.90;99.90
22426;DHT22;11380;50.822;15.790;2023-02-22T18:46:59;5.90;99.90
22426;DHT22;11380;50.822;15.790;2023-02-22T18:52:06;5.80;99.90
22426;DHT22;11380;50.822;15.790;2023-02-22T18:57:15;5.60;99.90
22426;DHT22;11380;50.822;15.790;2023-02-22T19:02:23;5.50;99.90
22426;DHT22;11380;50.822;15.790;2023-02-22T19:07:30;5.40;99.90
22426;DHT22;11380;50.822;15.790;2023-02-22T19:12:37;5.50;99.90
22426;DHT22;11380;50.822;15.790;2023-02-22T19:17:44;5.50;99.90
22426;DHT22;11380;50.822;15.790;2023-02-22T19:22:51;5.40;99.90
22426;DHT22;11380;50.822;15.790;2023-02-22T19:27:59;5.20;99.90
22426;DHT22;11380;50.822;15.790;2023-02-22T19:33:08;5.20;99.90
22426;DHT22;11380;50.822;15.790;2023-02-22T19:38:15;5.20;99.90
22426;DHT22;11380;50.822;15.790;2023-02-22T19:43:24;5.20;99.90
22426;DHT22;11380;50.822;15.790;2023-02-22T19:48:32;5.10;99.90
22426;DHT22;11380;50.822;15.790;2023-02-22T19:53:40;5.10;99.90
22426;DHT22;11380;50.822;15.790;2023-02-22T19:58:49;5.10;99.90
22426;DHT22;11380;50.822;15.790;2023-02-22T20:03:59;5.10;99.90
22426;DHT22;11380;50.822;15.790;2023-02-22T20:09:14;5.00;99.90
22426;DHT22;11380;50.822;15.790;2023-02-22T20:14:25;4.70;99.90
22426;DHT22;11380;50.822;15.790;2023-02-22T20:19:33;4.40;99.90
22426;DHT22;11380;50.822;15.790;2023-02-22T20:24:41;3.90;99.90
22426;DHT22;11380;50.822;15.790;2023-02-22T20:29:49;3.80;99.90
22426;DHT22;11380;50.822;15.790;2023-02-22T20:34:57;3.90;99.90
22426;DHT22;11380;50.822;15.790;2023-02-22T20:40:04;3.60;99.90
22426;DHT22;11380;50.822;15.790;2023-02-22T20:45:11;3.30;99.90
22426;DHT22;11380;50.822;15.790;2023-02-22T20:50:20;3.30;99.90
22426;DHT22;11380;50.822;15.790;2023-02-22T20:55:26;3.30;99.90
22426;DHT22;11380;50.822;15.790;2023-02-22T21:00:34;3.20;99.90
22426;DHT22;11380;50.822;15.790;2023-02-22T21:05:43;3.10;99.90
22426;DHT22;11380;50.822;15.790;2023-02-22T21:10:50;3.30;99.90
22426;DHT22;11380;50.822;15.790;2023-02-22T21:16:01;3.40;99.90
22426;DHT22;11380;50.822;15.790;2023-02-22T21:21:10;2.90;99.90
22426;DHT22;11380;50.822;15.790;2023-02-22T21:26:20;2.90;99.90
22426;DHT22;11380;50.822;15.790;2023-02-22T21:31:29;2.80;99.90
22426;DHT22;11380;50.822;15.790;2023-02-22T21:36:38;2.80;99.90
22426;DHT22;11380;50.822;15.790;2023-02-22T21:41:50;2.80;99.90
22426;DHT22;11380;50.822;15.790;2023-02-22T21:46:57;3.00;99.90
22426;DHT22;11380;50.822;15.790;2023-02-22T21:52:04;3.00;99.90
22426;DHT22;11380;50.822;15.790;2023-02-22T21:57:12;3.00;99.90
22426;DHT22;11380;50.822;15.790;2023-02-22T22:02:20;2.70;99.90
22426;DHT22;11380;50.822;15.790;2023-02-22T22:07:27;2.80;99.90
22426;DHT22;11380;50.822;15.790;2023-02-22T22:12:34;2.50;99.90
22426;DHT22;11380;50.822;15.790;2023-02-22T22:17:43;2.40;99.90
22426;DHT22;11380;50.822;15.790;2023-02-22T22:22:50;2.30;99.90
22426;DHT22;11380;50.822;15.790;2023-02-22T22:27:58;2.10;99.90
22426;DHT22;11380;50.822;15.790;2023-02-22T22:33:06;2.10;99.90
22426;DHT22;11380;50.822;15.790;2023-02-22T22:38:15;2.00;99.90
22426;DHT22;11380;50.822;15.790;2023-02-22T22:43:26;2.30;99.90
22426;DHT22;11380;50.822;15.790;2023-02-22T22:48:35;2.30;99.90
22426;DHT22;11380;50.822;15.790;2023-02-22T22:53:44;2.10;99.90
22426;DHT22;11380;50.822;15.790;2023-02-22T22:58:55;2.30;99.90
22426;DHT22;11380;50.822;15.790;2023-02-22T23:04:10;2.40;99.90
22426;DHT22;11380;50.822;15.790;2023-02-22T23:09:17;2.10;99.90
22426;DHT22;11380;50.822;15.790;2023-02-22T23:14:28;2.30;99.90
22426;DHT22;11380;50.822;15.790;2023-02-22T23:19:36;2.30;99.90
22426;DHT22;11380;50.822;15.790;2023-02-22T23:24:45;2.30;99.90
22426;DHT22;11380;50.822;15.790;2023-02-22T23:29:53;2.00;99.90
22426;DHT22;11380;50.822;15.790;2023-02-22T23:35:00;1.60;99.90
22426;DHT22;11380;50.822;15.790;2023-02-22T23:40:09;1.20;99.90
22426;DHT22;11380;50.822;15.790;2023-02-22T23:45:24;1.30;99.90
22426;DHT22;11380;50.822;15.790;2023-02-22T23:50:32;1.60;99.90
22426;DHT22;11380;50.822;15.790;2023-02-22T23:55:40;1.80;99.90
